Time;durP1;ratioP1;P1;durP2;ratioP2;P2;SDS_P1;SDS_P2;PMS_P1;PMS_P2;Temp;Humidity;BMP_temperature;BMP_pressure;BME280_temperature;BME280_humidity;BME280_pressure;Samples;Min_cycle;Max_cycle;Signal;HPM_P1;HPM_P2
2023/07/20 00:00:25;;;;;;;7.80;2.72;;;20.50;50.00;;;;;;5075662;28;20082;-73
2023/07/20 00:02:51;;;;;;;7.55;2.72;;;20.40;49.90;;;;;;5075460;28;20384;-73
2023/07/20 00:05:24;;;;;;;6.28;2.53;;;20.30;50.30;;;;;;5074527;28;20024;-74
2023/07/20 00:07:51;;;;;;;7.03;2.50;;;20.30;50.10;;;;;;5075315;28;20089;-73
2023/07/20 00:10:17;;;;;;;5.10;2.92;;;20.20;50.20;;;;;;5075484;28;20594;-73
2023/07/20 00:12:47;;;;;;;7.57;2.70;;;20.30;50.10;;;;;;5074121;28;20059;-75
2023/07/20 00:15:13;;;;;;;4.72;2.72;;;20.30;50.20;;;;;;5075247;28;20491;-73
2023/07/20 00:17:39;;;;;;;8.80;2.88;;;20.20;50.20;;;;;;5075129;28;20036;-74
2023/07/20 00:20:06;;;;;;;7.88;3.10;;;20.10;50.30;;;;;;5075040;28;20468;-73
2023/07/20 00:22:31;;;;;;;5.95;3.45;;;20.00;49.90;;;;;;5075313;28;20086;-73
2023/07/20 00:24:57;;;;;;;5.60;2.83;;;19.90;50.00;;;;;;5074013;28;20468;-75
2023/07/20 00:27:23;;;;;;;7.85;3.35;;;19.90;50.10;;;;;;5075042;28;20058;-73
2023/07/20 00:29:48;;;;;;;5.60;2.97;;;19.90;50.50;;;;;;5075067;28;20070;-73
2023/07/20 00:32:14;;;;;;;8.23;3.20;;;19.90;49.90;;;;;;5074992;28;20046;-74
2023/07/20 00:34:39;;;;;;;5.95;3.33;;;19.80;49.60;;;;;;5074543;28;20094;-74
2023/07/20 00:37:05;;;;;;;5.80;3.28;;;19.70;50.00;;;;;;5074959;28;20028;-74
2023/07/20 00:39:30;;;;;;;4.55;2.85;;;19.70;50.20;;;;;;5074669;28;20044;-73
2023/07/20 00:41:56;;;;;;;4.82;2.72;;;19.70;50.00;;;;;;5073429;28;20115;-75
2023/07/20 00:44:21;;;;;;;4.13;2.88;;;19.70;49.90;;;;;;5074298;28;20465;-73
2023/07/20 00:46:47;;;;;;;3.13;2.70;;;19.70;49.70;;;;;;5074731;28;20024;-73
2023/07/20 00:49:14;;;;;;;6.82;3.20;;;19.80;49.50;;;;;;5074763;28;20381;-73
2023/07/20 00:51:40;;;;;;;7.00;3.30;;;19.80;49.30;;;;;;5074489;28;20020;-73
2023/07/20 00:54:06;;;;;;;8.25;3.15;;;19.80;49.50;;;;;;5074693;28;20462;-72
2023/07/20 00:56:31;;;;;;;5.22;2.88;;;19.80;49.50;;;;;;5074651;28;20147;-72
2023/07/20 00:58:57;;;;;;;5.95;3.13;;;19.80;49.60;;;;;;5074310;28;20045;-72
2023/07/20 01:01:23;;;;;;;4.43;2.92;;;19.80;49.50;;;;;;5074495;28;20025;-73
2023/07/20 01:03:48;;;;;;;4.13;3.10;;;19.80;49.50;;;;;;5074412;28;20365;-73
2023/07/20 01:06:26;;;;;;;7.95;3.28;;;19.70;50.10;;;;;;5074365;28;20024;-73
2023/07/20 01:09:33;;;;;;;5.25;2.78;;;19.60;50.70;;;;;;5074289;28;20465;-73
2023/07/20 01:12:25;;;;;;;4.78;3.28;;;19.60;50.70;;;;;;5074206;28;20056;-73
2023/07/20 01:14:52;;;;;;;5.85;2.95;;;19.60;50.80;;;;;;5074155;28;20063;-73
2023/07/20 01:17:17;;;;;;;7.05;3.00;;;19.60;50.80;;;;;;5074119;28;20028;-73
2023/07/20 01:19:43;;;;;;;6.07;3.28;;;19.50;50.90;;;;;;5073869;28;20025;-74
2023/07/20 01:22:46;;;;;;;11.82;3.53;;;19.30;51.30;;;;;;5073818;28;20053;-76
2023/07/20 01:25:17;;;;;;;7.95;3.20;;;19.10;52.30;;;;;;5073915;28;20461;-75
2023/07/20 01:27:51;;;;;;;6.65;3.50;;;19.00;53.30;;;;;;5073705;28;20380;-75
2023/07/20 01:30:29;;;;;;;4.80;3.30;;;18.90;53.90;;;;;;5073821;28;20436;-75
2023/07/20 01:32:56;;;;;;;5.72;3.55;;;18.80;54.00;;;;;;5073918;28;20047;-75
2023/07/20 01:35:24;;;;;;;4.72;3.10;;;18.80;53.80;;;;;;5073895;28;20055;-75
2023/07/20 01:37:51;;;;;;;7.95;3.05;;;18.80;53.60;;;;;;5073707;28;20064;-72
2023/07/20 01:40:17;;;;;;;6.32;3.35;;;18.70;54.00;;;;;;5073779;28;20028;-72
2023/07/20 01:42:47;;;;;;;4.78;3.28;;;18.70;53.80;;;;;;5073568;28;20032;-71
2023/07/20 01:45:12;;;;;;;7.28;3.47;;;18.70;53.90;;;;;;5073612;28;20051;-71
2023/07/20 01:47:38;;;;;;;5.65;3.13;;;18.70;53.70;;;;;;5073589;28;20060;-71
2023/07/20 01:50:04;;;;;;;4.30;3.20;;;18.80;53.50;;;;;;5073549;28;20056;-71
2023/07/20 01:52:30;;;;;;;5.40;3.03;;;18.80;53.50;;;;;;5073455;28;20024;-72
2023/07/20 01:54:55;;;;;;;5.45;3.28;;;18.90;53.60;;;;;;5073496;28;20044;-72
2023/07/20 01:57:21;;;;;;;3.97;2.92;;;18.90;54.30;;;;;;5073325;28;20029;-73
2023/07/20 01:59:46;;;;;;;3.25;2.72;;;18.90;54.80;;;;;;5073253;28;20029;-72
2023/07/20 02:02:12;;;;;;;3.35;2.60;;;18.90;55.20;;;;;;5073356;28;20024;-73
2023/07/20 02:04:37;;;;;;;5.47;3.00;;;18.90;55.50;;;;;;5073090;28;20055;-72
2023/07/20 02:07:03;;;;;;;6.55;2.78;;;18.90;55.80;;;;;;5071905;28;20503;-72
2023/07/20 02:09:29;;;;;;;6.60;2.90;;;18.70;55.90;;;;;;5073228;28;20111;-73
2023/07/20 02:11:55;;;;;;;6.05;3.10;;;18.70;56.20;;;;;;5072993;28;20017;-72
2023/07/20 02:14:22;;;;;;;6.60;3.22;;;18.60;56.30;;;;;;5072856;28;20020;-73
2023/07/20 02:16:51;;;;;;;3.17;2.85;;;18.60;56.50;;;;;;5073134;28;20017;-73
2023/07/20 02:19:17;;;;;;;5.00;2.95;;;18.60;56.50;;;;;;5071609;28;20476;-73
2023/07/20 02:21:42;;;;;;;7.97;3.17;;;18.60;56.30;;;;;;5072683;28;20458;-73
2023/07/20 02:24:08;;;;;;;3.20;2.55;;;18.60;56.30;;;;;;5073087;28;20032;-73
2023/07/20 02:26:33;;;;;;;3.38;3.00;;;18.50;56.50;;;;;;5072660;28;20024;-73
2023/07/20 02:28:59;;;;;;;5.30;3.20;;;18.50;56.80;;;;;;5072904;28;20403;-73
2023/07/20 02:31:24;;;;;;;5.10;3.10;;;18.40;56.80;;;;;;5072941;28;20380;-73
2023/07/20 02:33:50;;;;;;;5.22;2.70;;;18.50;57.00;;;;;;5072973;28;20441;-73
2023/07/20 02:36:16;;;;;;;4.55;2.58;;;18.40;56.90;;;;;;5072670;28;20472;-74
2023/07/20 02:38:42;;;;;;;4.47;3.00;;;18.40;56.90;;;;;;5072828;28;20067;-74
2023/07/20 02:41:08;;;;;;;4.80;2.72;;;18.30;57.00;;;;;;5083887;28;20021;-76
2023/07/20 02:43:33;;;;;;;5.07;2.80;;;18.30;57.10;;;;;;5072717;28;20499;-72
2023/07/20 02:45:59;;;;;;;4.18;2.75;;;18.20;57.30;;;;;;5075967;28;20028;-73
2023/07/20 02:48:24;;;;;;;6.05;3.30;;;18.20;57.70;;;;;;5072971;28;20025;-73
2023/07/20 02:50:50;;;;;;;4.80;2.90;;;18.10;57.90;;;;;;5072747;28;20388;-75
2023/07/20 02:53:15;;;;;;;5.47;3.10;;;18.10;58.00;;;;;;5072848;28;20032;-72
2023/07/20 02:55:41;;;;;;;4.03;2.72;;;18.10;58.00;;;;;;5071293;28;20025;-73
2023/07/20 02:58:06;;;;;;;5.20;2.97;;;18.10;59.00;;;;;;5071189;28;20036;-72
2023/07/20 03:00:33;;;;;;;4.78;3.15;;;18.00;58.20;;;;;;5072699;28;20115;-72
2023/07/20 03:02:58;;;;;;;5.03;2.95;;;18.00;58.20;;;;;;5072635;28;20021;-72
2023/07/20 03:05:25;;;;;;;5.63;3.35;;;18.00;58.40;;;;;;5072456;28;20048;-72
2023/07/20 03:07:50;;;;;;;3.25;2.92;;;17.90;58.90;;;;;;5072454;28;20070;-72
2023/07/20 03:10:16;;;;;;;4.95;3.15;;;17.90;58.90;;;;;;5088396;28;20029;-75
2023/07/20 03:12:42;;;;;;;4.05;3.08;;;17.90;59.20;;;;;;5072508;28;20028;-73
2023/07/20 03:15:08;;;;;;;4.50;2.83;;;17.80;59.20;;;;;;5072493;28;20027;-73
2023/07/20 03:17:34;;;;;;;4.60;2.97;;;17.80;59.10;;;;;;5072491;28;20077;-74
2023/07/20 03:20:00;;;;;;;4.18;3.20;;;17.80;59.00;;;;;;5072215;28;20107;-73
2023/07/20 03:22:26;;;;;;;4.65;2.90;;;17.70;59.00;;;;;;5071111;28;20025;-73
2023/07/20 03:24:52;;;;;;;5.65;3.10;;;17.80;59.00;;;;;;5072408;28;20028;-73
2023/07/20 03:27:18;;;;;;;4.32;2.75;;;17.70;59.00;;;;;;5072300;28;20372;-74
2023/07/20 03:29:44;;;;;;;6.18;3.25;;;17.70;58.90;;;;;;5072349;28;20028;-74
2023/07/20 03:32:10;;;;;;;6.70;2.95;;;17.70;60.00;;;;;;5072343;28;20142;-73
2023/07/20 03:34:35;;;;;;;7.05;3.30;;;17.70;59.20;;;;;;5072093;28;20499;-74
2023/07/20 03:37:01;;;;;;;6.40;3.35;;;17.60;59.40;;;;;;5072203;28;20099;-74
2023/07/20 03:39:27;;;;;;;4.20;2.97;;;17.70;59.40;;;;;;5073457;28;20032;-73
2023/07/20 03:41:52;;;;;;;3.70;3.28;;;17.60;59.50;;;;;;5075983;28;20021;-73
2023/07/20 03:44:18;;;;;;;4.68;2.92;;;17.60;59.60;;;;;;5075842;28;20028;-76
2023/07/20 03:46:44;;;;;;;6.65;3.60;;;17.50;60.20;;;;;;5075807;28;20044;-75
2023/07/20 03:49:10;;;;;;;6.88;3.53;;;17.50;60.30;;;;;;5075713;28;20032;-74
2023/07/20 03:51:35;;;;;;;6.35;3.50;;;17.50;60.40;;;;;;5075582;28;20033;-74
2023/07/20 03:54:02;;;;;;;5.20;2.85;;;17.50;60.00;;;;;;5075813;28;20120;-75
2023/07/20 03:56:27;;;;;;;4.68;2.90;;;17.60;59.90;;;;;;5075664;28;20499;-75
2023/07/20 03:58:53;;;;;;;6.43;3.40;;;17.60;59.80;;;;;;5075516;28;20120;-75
2023/07/20 04:01:18;;;;;;;5.70;3.17;;;17.60;59.50;;;;;;5074307;28;20074;-75
2023/07/20 04:03:44;;;;;;;4.35;3.45;;;17.60;59.30;;;;;;5075489;28;20103;-74
2023/07/20 04:06:10;;;;;;;5.53;3.20;;;17.60;59.10;;;;;;5075528;28;20093;-74
2023/07/20 04:08:37;;;;;;;6.30;3.05;;;17.60;59.20;;;;;;5075440;28;20422;-73
2023/07/20 04:11:02;;;;;;;5.63;2.85;;;17.60;59.50;;;;;;5075444;28;20023;-74
2023/07/20 04:13:28;;;;;;;3.50;2.60;;;17.70;59.50;;;;;;5075345;28;20024;-74
2023/07/20 04:15:55;;;;;;;5.72;2.95;;;17.60;59.40;;;;;;5075303;28;20052;-73
2023/07/20 04:18:20;;;;;;;5.07;3.03;;;17.70;59.40;;;;;;5074964;28;20036;-74
2023/07/20 04:20:46;;;;;;;4.38;3.05;;;17.70;59.30;;;;;;5075089;28;20039;-75
2023/07/20 04:23:12;;;;;;;5.68;2.97;;;17.80;59.30;;;;;;5075219;28;20052;-78
2023/07/20 04:25:39;;;;;;;6.63;3.22;;;17.70;59.30;;;;;;5075161;28;20055;-75
2023/07/20 04:28:08;;;;;;;3.83;2.70;;;17.80;59.10;;;;;;5075106;28;20024;-75
2023/07/20 04:30:36;;;;;;;4.28;3.15;;;17.70;59.10;;;;;;5073769;28;20090;-75
2023/07/20 04:33:01;;;;;;;5.32;3.15;;;17.70;59.20;;;;;;5075224;28;20099;-75
2023/07/20 04:35:50;;;;;;;5.07;2.92;;;17.80;59.40;;;;;;5075017;28;20499;-76
2023/07/20 04:38:17;;;;;;;6.28;3.00;;;17.80;59.40;;;;;;5074687;28;20059;-74
2023/07/20 04:40:48;;;;;;;3.53;2.60;;;17.80;59.40;;;;;;5073675;28;20023;-77
2023/07/20 04:43:14;;;;;;;3.33;2.60;;;17.90;59.40;;;;;;5074923;28;20032;-77
2023/07/20 04:45:40;;;;;;;4.90;3.53;;;17.90;59.20;;;;;;5074704;28;20457;-75
2023/07/20 04:48:10;;;;;;;4.82;3.00;;;18.10;59.20;;;;;;5074942;28;20077;-75
2023/07/20 04:50:36;;;;;;;7.97;3.35;;;18.00;59.10;;;;;;5074534;28;20017;-76
2023/07/20 04:53:02;;;;;;;6.88;3.50;;;18.10;59.10;;;;;;5073390;28;20492;-76
2023/07/20 04:55:28;;;;;;;7.10;3.10;;;18.30;58.90;;;;;;5074570;28;20021;-77
2023/07/20 04:57:53;;;;;;;4.65;3.10;;;18.20;58.60;;;;;;5074594;28;20032;-75
2023/07/20 05:00:21;;;;;;;3.88;2.70;;;18.20;58.40;;;;;;5073317;28;20485;-75
2023/07/20 05:02:48;;;;;;;4.20;2.85;;;18.30;59.10;;;;;;5074483;28;20166;-76
2023/07/20 05:05:14;;;;;;;4.05;2.95;;;18.40;57.90;;;;;;5074528;28;20017;-76
2023/07/20 05:07:40;;;;;;;4.13;2.95;;;18.40;57.80;;;;;;5074388;28;20146;-76
2023/07/20 05:10:07;;;;;;;3.42;2.60;;;18.50;57.30;;;;;;5074314;28;20052;-76
2023/07/20 05:12:32;;;;;;;3.72;2.78;;;18.50;57.40;;;;;;5074139;28;20099;-76
2023/07/20 05:14:58;;;;;;;3.03;2.80;;;18.50;57.50;;;;;;5074320;28;20104;-76
2023/07/20 05:17:24;;;;;;;5.22;3.20;;;18.60;57.50;;;;;;5072738;28;20078;-76
2023/07/20 05:19:50;;;;;;;4.30;3.28;;;18.60;57.40;;;;;;5074019;28;20048;-74
2023/07/20 05:22:16;;;;;;;4.25;3.28;;;18.60;57.40;;;;;;5073347;28;20408;-76
2023/07/20 05:24:42;;;;;;;7.57;3.30;;;18.70;57.50;;;;;;5073552;28;20414;-76
2023/07/20 05:27:07;;;;;;;9.23;3.40;;;18.80;57.60;;;;;;5073610;28;20078;-75
2023/07/20 05:29:33;;;;;;;3.42;2.90;;;18.90;57.30;;;;;;5073408;28;20033;-76
2023/07/20 05:31:58;;;;;;;4.80;3.47;;;18.90;57.00;;;;;;5073202;28;20028;-77
2023/07/20 05:34:24;;;;;;;3.45;2.80;;;18.90;57.10;;;;;;5073740;28;20060;-76
2023/07/20 05:36:50;;;;;;;5.25;3.15;;;19.00;57.20;;;;;;5073533;28;20034;-78
2023/07/20 05:39:18;;;;;;;3.95;3.08;;;19.10;57.70;;;;;;5073599;28;20037;-74
2023/07/20 05:41:43;;;;;;;7.18;2.97;;;19.20;57.70;;;;;;5073585;28;20021;-76
2023/07/20 05:44:09;;;;;;;4.00;3.13;;;19.30;57.60;;;;;;5073595;28;20351;-74
2023/07/20 05:46:34;;;;;;;4.68;2.92;;;19.30;57.60;;;;;;5072027;28;20357;-76
2023/07/20 05:49:00;;;;;;;3.15;2.45;;;19.40;57.50;;;;;;5073188;28;20527;-74
2023/07/20 05:51:26;;;;;;;5.47;3.00;;;19.40;57.20;;;;;;5071946;28;20031;-74
2023/07/20 05:53:51;;;;;;;5.95;3.25;;;19.50;56.60;;;;;;5073313;28;20017;-77
2023/07/20 05:56:17;;;;;;;4.97;2.53;;;19.50;56.70;;;;;;5073349;28;20029;-74
2023/07/20 05:58:42;;;;;;;2.80;2.50;;;19.50;56.50;;;;;;5073173;28;20395;-76
2023/07/20 06:01:08;;;;;;;3.88;3.25;;;19.70;55.90;;;;;;5073077;28;20028;-77
2023/07/20 06:03:34;;;;;;;3.72;2.70;;;19.70;55.00;;;;;;5071553;28;20063;-77
2023/07/20 06:06:01;;;;;;;4.22;2.85;;;19.80;54.20;;;;;;5073210;28;20025;-77
2023/07/20 06:08:28;;;;;;;5.60;3.20;;;19.90;53.60;;;;;;5073016;28;20096;-76
2023/07/20 06:10:54;;;;;;;6.75;3.40;;;19.90;52.70;;;;;;5073181;28;20017;-75
2023/07/20 06:13:20;;;;;;;5.78;2.97;;;20.00;52.40;;;;;;5073155;28;20024;-73
2023/07/20 06:15:47;;;;;;;4.72;2.80;;;20.10;52.20;;;;;;5073240;28;20104;-73
2023/07/20 06:18:12;;;;;;;5.75;3.05;;;20.20;51.70;;;;;;5073014;28;20032;-73
2023/07/20 06:20:38;;;;;;;5.18;3.28;;;20.30;51.50;;;;;;5072733;28;20043;-73
2023/07/20 06:23:04;;;;;;;2.95;2.30;;;20.40;51.10;;;;;;5073184;28;20052;-74
2023/07/20 06:25:29;;;;;;;4.60;2.92;;;20.50;50.60;;;;;;5072775;28;20104;-73
2023/07/20 06:27:56;;;;;;;4.00;2.40;;;20.60;49.90;;;;;;5072762;28;20035;-74
2023/07/20 06:30:22;;;;;;;4.38;2.67;;;20.60;49.40;;;;;;5072810;28;20024;-73
2023/07/20 06:32:48;;;;;;;4.97;2.80;;;20.70;49.20;;;;;;5072949;28;20024;-73
2023/07/20 06:35:14;;;;;;;4.10;3.00;;;20.80;49.00;;;;;;5072843;28;20022;-75
2023/07/20 06:37:40;;;;;;;5.85;2.75;;;20.90;48.80;;;;;;5072595;28;20016;-74
2023/07/20 06:40:06;;;;;;;22.83;4.28;;;21.00;48.60;;;;;;5072858;28;20040;-72
2023/07/20 06:42:31;;;;;;;7.25;3.35;;;21.20;48.90;;;;;;5072740;28;20027;-72
2023/07/20 06:44:57;;;;;;;6.07;2.50;;;21.30;47.90;;;;;;5072695;28;20376;-73
2023/07/20 06:47:23;;;;;;;6.35;3.10;;;21.50;47.40;;;;;;5072584;28;20710;-72
2023/07/20 06:49:49;;;;;;;5.50;2.58;;;21.70;46.70;;;;;;5072441;28;20111;-72
2023/07/20 06:52:15;;;;;;;4.57;2.50;;;21.80;46.20;;;;;;5072559;28;20100;-72
2023/07/20 06:54:40;;;;;;;7.32;3.05;;;22.00;45.60;;;;;;5072427;28;20060;-73
2023/07/20 06:57:06;;;;;;;4.72;3.40;;;22.00;44.80;;;;;;5072565;28;20017;-72
2023/07/20 06:59:31;;;;;;;4.78;2.92;;;22.00;45.10;;;;;;5072439;28;20044;-72
2023/07/20 07:01:57;;;;;;;4.80;2.75;;;22.00;45.10;;;;;;5071195;28;20113;-72
2023/07/20 07:04:23;;;;;;;5.82;2.63;;;22.20;45.10;;;;;;5072400;28;20354;-72
2023/07/20 07:06:48;;;;;;;6.85;3.03;;;22.30;44.70;;;;;;5072154;28;20032;-73
2023/07/20 07:09:14;;;;;;;8.88;3.60;;;22.50;44.10;;;;;;5072289;28;20035;-73
2023/07/20 07:11:40;;;;;;;5.35;2.90;;;22.60;43.70;;;;;;5072275;28;20021;-74
2023/07/20 07:14:05;;;;;;;7.32;2.55;;;22.60;43.80;;;;;;5075481;28;20020;-73
2023/07/20 07:16:31;;;;;;;6.25;2.90;;;22.60;43.30;;;;;;5076436;28;20391;-72
2023/07/20 07:18:56;;;;;;;4.43;2.80;;;22.60;42.90;;;;;;5076124;28;20036;-73
2023/07/20 07:21:22;;;;;;;5.18;2.70;;;22.40;44.40;;;;;;5076211;28;20044;-73
2023/07/20 07:23:48;;;;;;;4.78;2.22;;;22.40;44.40;;;;;;5076209;28;20029;-72
2023/07/20 07:26:13;;;;;;;3.42;2.50;;;22.60;44.40;;;;;;5076062;28;20397;-73
2023/07/20 07:28:40;;;;;;;4.13;2.88;;;22.60;44.10;;;;;;5076321;28;20052;-74
2023/07/20 07:31:06;;;;;;;5.43;2.88;;;22.70;42.90;;;;;;5075705;28;20441;-73
2023/07/20 07:33:32;;;;;;;4.60;2.75;;;22.60;43.30;;;;;;5075670;28;20035;-73
2023/07/20 07:35:57;;;;;;;4.90;2.75;;;22.10;42.80;;;;;;5075885;28;20020;-73
2023/07/20 07:38:23;;;;;;;7.75;2.75;;;21.70;43.70;;;;;;5074395;28;20047;-72
2023/07/20 07:40:49;;;;;;;8.48;2.42;;;21.50;44.90;;;;;;5075775;28;20415;-72
2023/07/20 07:43:14;;;;;;;4.78;2.97;;;21.60;44.90;;;;;;5075796;28;20032;-73
2023/07/20 07:45:40;;;;;;;3.72;2.60;;;21.60;44.30;;;;;;5075588;28;20384;-72
2023/07/20 07:48:06;;;;;;;6.43;3.25;;;21.60;45.50;;;;;;5075398;28;20487;-73
2023/07/20 07:50:33;;;;;;;4.07;2.45;;;21.30;45.10;;;;;;5075372;28;20115;-71
2023/07/20 07:52:59;;;;;;;9.00;2.67;;;21.50;45.00;;;;;;5074136;28;20548;-72
2023/07/20 07:55:26;;;;;;;6.40;2.45;;;21.80;44.00;;;;;;5075556;28;20103;-72
2023/07/20 07:57:52;;;;;;;3.67;2.10;;;22.00;42.90;;;;;;5075446;28;20040;-72
2023/07/20 08:00:18;;;;;;;4.63;2.60;;;22.10;43.00;;;;;;5075365;28;20028;-72
2023/07/20 08:02:45;;;;;;;8.95;2.80;;;22.20;42.40;;;;;;5075526;28;20111;-73
2023/07/20 08:05:11;;;;;;;10.43;2.83;;;22.00;42.50;;;;;;5075800;28;20024;-74
2023/07/20 08:07:36;;;;;;;7.13;2.60;;;21.60;42.70;;;;;;5075600;28;20021;-73
2023/07/20 08:10:03;;;;;;;3.30;2.20;;;21.50;43.20;;;;;;5075153;28;20032;-74
2023/07/20 08:12:29;;;;;;;4.63;2.40;;;21.60;43.40;;;;;;5074720;28;20027;-74
2023/07/20 08:14:54;;;;;;;3.47;1.92;;;21.80;42.80;;;;;;5075413;28;20473;-73
2023/07/20 08:17:20;;;;;;;7.07;2.60;;;21.90;43.20;;;;;;5075466;28;20130;-73
2023/07/20 08:19:46;;;;;;;4.53;1.98;;;22.20;42.50;;;;;;5075048;28;20028;-73
2023/07/20 08:22:12;;;;;;;3.72;2.33;;;22.30;41.30;;;;;;5074912;28;20047;-73
2023/07/20 08:24:41;;;;;;;3.85;2.08;;;22.30;40.70;;;;;;5074354;28;20107;-73
2023/07/20 08:27:08;;;;;;;5.30;2.30;;;22.20;41.60;;;;;;5074915;28;20028;-73
2023/07/20 08:29:34;;;;;;;3.63;2.50;;;22.30;41.10;;;;;;5075101;28;20021;-72
2023/07/20 08:31:59;;;;;;;6.72;2.50;;;22.00;42.00;;;;;;5074641;28;20043;-73
2023/07/20 08:34:25;;;;;;;6.13;2.60;;;21.80;42.80;;;;;;5075018;28;20449;-72
2023/07/20 08:36:50;;;;;;;10.25;2.60;;;21.80;42.80;;;;;;5074690;28;20415;-73
2023/07/20 08:39:16;;;;;;;8.10;2.88;;;21.90;42.40;;;;;;5074851;28;20028;-72
2023/07/20 08:41:43;;;;;;;5.20;2.28;;;21.70;42.80;;;;;;5074683;28;20025;-72
2023/07/20 08:44:09;;;;;;;6.45;1.98;;;21.50;41.00;;;;;;5074317;28;20028;-73
2023/07/20 08:46:38;;;;;;;5.57;1.83;;;21.40;41.90;;;;;;5074871;28;20021;-73
2023/07/20 08:49:04;;;;;;;5.40;1.80;;;21.50;41.90;;;;;;5073315;28;20033;-73
2023/07/20 08:51:30;;;;;;;5.35;2.17;;;21.60;41.80;;;;;;5074550;28;20033;-73
2023/07/20 08:53:56;;;;;;;5.32;2.45;;;21.40;42.30;;;;;;5074645;28;20044;-72
2023/07/20 08:56:25;;;;;;;2.83;1.90;;;21.50;42.80;;;;;;5074382;28;20020;-73
2023/07/20 08:58:52;;;;;;;4.45;2.00;;;21.70;42.90;;;;;;5074383;28;20032;-72
2023/07/20 09:01:19;;;;;;;2.50;1.80;;;21.80;42.30;;;;;;5073168;28;20416;-73
2023/07/20 09:03:46;;;;;;;8.68;1.92;;;21.90;41.00;;;;;;5074400;28;20103;-73
2023/07/20 09:06:12;;;;;;;5.35;1.83;;;21.90;41.40;;;;;;5074411;28;20025;-73
2023/07/20 09:08:39;;;;;;;3.35;1.80;;;22.10;40.80;;;;;;5073933;28;20033;-72
2023/07/20 09:11:05;;;;;;;4.10;1.95;;;22.10;39.50;;;;;;5071037;28;20035;-73
2023/07/20 09:13:32;;;;;;;2.33;1.75;;;22.30;40.40;;;;;;5073624;28;20028;-74
2023/07/20 09:15:58;;;;;;;3.90;1.80;;;22.50;39.80;;;;;;5073431;28;20100;-73
2023/07/20 09:18:28;;;;;;;4.10;2.00;;;22.70;39.30;;;;;;5070679;28;20103;-75
2023/07/20 09:21:05;;;;;;;6.47;2.00;;;22.60;39.70;;;;;;5073208;28;20388;-73
2023/07/20 09:23:40;;;;;;;4.82;2.40;;;22.60;39.30;;;;;;5072457;28;20111;-74
2023/07/20 09:26:13;;;;;;;3.55;2.10;;;22.40;39.90;;;;;;5071058;28;20025;-73
2023/07/20 09:28:52;;;;;;;6.13;2.15;;;22.20;40.50;;;;;;5072250;28;20056;-74
2023/07/20 09:31:19;;;;;;;4.30;1.92;;;22.40;39.90;;;;;;5072207;28;20107;-74
2023/07/20 09:33:49;;;;;;;2.75;1.63;;;22.60;39.40;;;;;;5072136;28;20048;-75
2023/07/20 09:36:14;;;;;;;4.72;1.90;;;22.80;39.00;;;;;;5071480;28;20381;-73
2023/07/20 09:38:45;;;;;;;3.97;1.73;;;22.90;39.10;;;;;;5071532;28;20025;-73
2023/07/20 09:41:18;;;;;;;6.15;2.00;;;23.20;37.90;;;;;;5072251;28;20044;-73
2023/07/20 09:43:45;;;;;;;4.03;2.20;;;23.30;37.30;;;;;;5072025;28;20021;-72
2023/07/20 09:46:11;;;;;;;3.85;1.88;;;23.40;36.80;;;;;;5073097;28;20042;-74
2023/07/20 09:48:36;;;;;;;3.58;2.00;;;23.50;36.50;;;;;;5072152;28;20032;-73
2023/07/20 09:51:04;;;;;;;3.40;2.35;;;23.60;36.40;;;;;;5071754;28;20020;-73
2023/07/20 09:53:31;;;;;;;4.47;1.80;;;23.40;36.50;;;;;;5071013;28;20423;-73
2023/07/20 09:55:58;;;;;;;5.90;2.22;;;23.30;37.50;;;;;;5071310;28;20025;-73
2023/07/20 09:58:26;;;;;;;4.80;2.15;;;23.20;36.50;;;;;;5085611;28;20423;-74
2023/07/20 10:00:52;;;;;;;2.15;1.52;;;23.00;38.20;;;;;;5071415;28;20047;-74
2023/07/20 10:03:22;;;;;;;4.50;1.60;;;23.10;37.70;;;;;;5071414;28;20020;-75
2023/07/20 10:06:03;;;;;;;3.95;1.92;;;23.30;37.60;;;;;;5062530;28;20056;-74
2023/07/20 10:08:30;;;;;;;3.38;1.50;;;23.60;37.60;;;;;;5070228;28;20529;-73
2023/07/20 10:10:59;;;;;;;2.35;1.98;;;23.70;36.20;;;;;;5071255;28;20028;-73
2023/07/20 10:13:27;;;;;;;6.43;1.80;;;23.50;36.30;;;;;;5071133;28;20534;-74
2023/07/20 10:16:04;;;;;;;6.63;1.98;;;23.20;37.20;;;;;;5071124;28;20075;-73
2023/07/20 10:18:37;;;;;;;4.13;1.92;;;23.40;36.60;;;;;;5071422;28;20491;-73
2023/07/20 10:21:06;;;;;;;2.60;1.55;;;23.70;36.40;;;;;;5071385;28;20075;-74
2023/07/20 10:23:32;;;;;;;2.00;1.33;;;24.00;35.80;;;;;;5071846;28;20115;-74
2023/07/20 10:26:00;;;;;;;5.18;1.90;;;24.40;35.70;;;;;;5074065;28;20021;-74
2023/07/20 10:28:27;;;;;;;3.17;2.28;;;24.80;34.60;;;;;;5071484;28;20073;-74
2023/07/20 10:30:53;;;;;;;5.90;2.63;;;24.70;34.10;;;;;;5070078;28;20056;-73
2023/07/20 10:33:19;;;;;;;2.17;1.80;;;24.80;33.70;;;;;;5070099;28;20109;-74
2023/07/20 10:35:53;;;;;;;5.20;1.88;;;24.80;34.20;;;;;;5071476;28;20024;-74
2023/07/20 10:38:18;;;;;;;4.45;1.88;;;24.80;33.70;;;;;;5071456;28;20028;-74
2023/07/20 10:40:54;;;;;;;2.50;1.58;;;25.00;34.00;;;;;;5071002;28;20380;-74
2023/07/20 10:43:20;;;;;;;3.95;1.95;;;25.20;33.50;;;;;;5070928;28;20032;-75
2023/07/20 10:45:52;;;;;;;4.05;1.55;;;24.80;33.80;;;;;;5070519;28;20021;-76
2023/07/20 10:48:25;;;;;;;3.20;1.77;;;24.20;34.90;;;;;;5070257;28;20028;-74
2023/07/20 10:51:11;;;;;;;3.65;1.83;;;23.80;35.10;;;;;;5070576;28;20110;-76
2023/07/20 10:53:37;;;;;;;5.10;2.00;;;23.60;36.10;;;;;;5070601;28;20025;-76
